TXKF/BDA METAR and TAF weather

Enter ICAO airport designator
Station Type Date Time Source
TXKF METAR 2019/09/20 19:55 UTC NOAA

TXKF 201955Z 32011KT 9999 SCT036 BKN049 BKN210 BKN300 25/17 Q1020


Station Type Date Time Source
TXKF Decoded METAR 2019/09/20 19:55 UTC NOAA

Bermuda, Bermuda (TXKF) 32-22N 064-41W
Sep 20, 2019 - 03:55 PM EDT / 2019.09.20 1955 UTC
Wind: from the NW (320 degrees) at 13 MPH (11 KT):0
Visibility: greater than 7 mile(s):0
Sky conditions: mostly cloudy
Temperature: 77 F (25 C)
Dew Point: 62 F (17 C)
Relative Humidity: 61%
Pressure (altimeter): 30.12 in. Hg (1020 hPa)
ob: TXKF 201955Z 32011KT 9999 SCT036 BKN049 BKN210 BKN300 25/17 Q1020
cycle: 20

Station Type Date Time Source
TXKF TAF 2019/09/20 18:54 UTC NOAA

TAF TXKF 201744Z 2018/2118 33009KT 9999 FEW035
BECMG 2103/2106 02015KT

Example: see airport list